Terminal Aerodrome Forecast
Issued by NWS

Home | Current Version | Previous Version | Text Only | Print | Product List | Glossary On
Versions: 1 2 3 4 5 6 7 8 9 10 11 12 13 14 15 16 17 18 19 20 21
000
FTAK31 PAFA 282213 AAA
TAFAQT
TAF AMD
PAQT 282213Z 2822/2918 04009KT P6SM SCT015
      TEMPO 2822/2824 4SM BR BKN015
     FM290000 04012KT 4SM BR SCT010 BKN012
     FM290600 07010KT P6SM SCT010 BKN015=

USA.gov is the U.S. government's official web portal to all federal, state and local government web resources and services.